Scroll down
FLIGHT INFORMATION
KLM Royal Dutch Airlines

KLM756

At Arrival Gate

SEQM
 EHAM
DATE: 2021-02-16
GATE: 
GATE DEPARTURE: 13:11
TAKEOFF: 13:26
DATE: 2021-02-17
GATE:  -
LANDING: 00:04
GATE ARRIVAL: 00:15
FLIGHT DATA
Crew: 
Speed: 
926 kph
Altitude: 
41,023 ft
Stage Length: 
9,551.4 km
Block Time: 
11 hrs
Flight Time: 
10.6 hrs
Fuel Used: 
69,692 kg
Cleared Route: SEQM ARNOK BOKAN LOBUL KIKAS BNS TOMAX NEDEX PBL ILVUR NUXUL MEXUV VUDVI VUKIN TINGU GAVAL TOSOS UTGIS XOKEM KIKER RAYAS RAFEE ANNER PORQE DANDE PJM MNOLO NEYDU OBIKE RKDIA 3150N 3740N 4230N 4525N 4720N OMOKO GUNSO GAPLI SUNFI TOFED GAJIT CPT IPRIL KOBBI BRAIN GASBA RATLO REDFA EHAM
TRACK DATA
50,000 ft 1,000 kts
AIRCRAFT INFO AND CUMULATIVE STATS
Aircraft Type: 
B772
Registration: 
SELCAL: 
HRMQ
MSN/LN: 
28691 / 468
Total Flights: 
2
Total Block Time: 
19.2 hrs
Total Flight Time: 
18.7 hrs
Total Fuel Time: 
118,589 kg
DATALINK LOG | Newest first | Current as of: 2021-05-19 00:03:34
LABEL SEQUENCE CONTENT Dn/Up
QD333200:15 24.3▼ Dn
QC222200:04▼ Dn
2U3700EHAM 170225Z 24018KT 9999 FEW010 BKN045 08/06 Q1011 NOSIG▲ Up
2S5456EHAM▼ Dn
2U5436EHAM 170125Z 23015KT 9999 FEW014 BKN042 08/06 Q1011 NOSIG▲ Up
2S1113EHAM▼ Dn
QB435413:26▼ Dn
QA294013:11 178.1▼ Dn
Q05102[LINK ACK]▲ Up
Q05102[LINK TEST]▼ Dn


AIRCRAFT HISTORY
FLIGHT DATE FLIGHT NO. ORIGIN DESTINATION CLEARED ROUTE BLOCK TIME FLIGHT TIME FUEL USED PILOT
2021-02-26KLM226EHAM CYYZ EHAM EH001 EH051 EH009 EH028 BERGI AMGOD SUPUR KOLAG SOPEK OTBED ENCOD NISBI DOPEK ARTIX MOGMO MAMUL ADELU BOLBI SONEX PENIL BABRA GIGTO UNDUX SOPAX RAMOX OGTUG BAGSO DOGAL 5420N 5430N 5340N 5150N ALLRY MIILS LETAK CYYZ8.2 hrs8 hrs107,800 lbMichael Roth
2021-02-16KLM756SEQM EHAM SEQM ARNOK BOKAN LOBUL KIKAS BNS TOMAX NEDEX PBL ILVUR NUXUL MEXUV VUDVI VUKIN TINGU GAVAL TOSOS UTGIS XOKEM KIKER RAYAS RAFEE ANNER PORQE DANDE PJM MNOLO NEYDU OBIKE RKDIA 3150N 3740N 4230N 4525N 4720N OMOKO GUNSO GAPLI SUNFI TOFED GAJIT CPT IPRIL KOBBI BRAIN GASBA RATLO REDFA EHAM11 hrs10.6 hrs153,645 lbRyan Syferd